createdAt,value
2019-02-08T00:00:14.250Z,2.56
2019-02-08T00:05:14.274Z,2.63
2019-02-08T00:10:14.269Z,2.63
2019-02-08T00:15:14.260Z,2.63
2019-02-08T00:20:14.377Z,2.63
2019-02-08T00:25:14.336Z,2.63
2019-02-08T00:30:14.295Z,2.63
2019-02-08T00:35:14.302Z,2.63
2019-02-08T00:40:14.304Z,2.63
2019-02-08T00:45:14.326Z,2.63
2019-02-08T00:50:14.348Z,2.63
2019-02-08T00:55:14.301Z,2.69
2019-02-08T01:00:14.316Z,2.69
2019-02-08T01:05:14.307Z,2.75
2019-02-08T01:10:14.310Z,2.75
2019-02-08T01:15:14.312Z,2.75
2019-02-08T01:20:14.319Z,2.69
2019-02-08T01:25:14.321Z,2.69
2019-02-08T01:30:14.317Z,2.63
2019-02-08T01:35:14.326Z,2.69
2019-02-08T01:40:14.332Z,2.69
2019-02-08T01:45:14.322Z,2.63
2019-02-08T01:50:14.331Z,2.63
2019-02-08T01:55:14.336Z,2.69
2019-02-08T02:00:14.332Z,2.63
2019-02-08T02:05:14.331Z,2.56
2019-02-08T02:10:14.344Z,2.56
2019-02-08T02:15:14.342Z,2.63
2019-02-08T02:20:14.346Z,2.63
2019-02-08T02:25:14.351Z,2.56
2019-02-08T02:30:14.352Z,2.5
2019-02-08T02:35:14.364Z,2.5
2019-02-08T02:40:14.357Z,2.44
2019-02-08T02:45:14.362Z,2.38
2019-02-08T02:50:14.363Z,2.44
2019-02-08T02:55:14.362Z,2.44
2019-02-08T03:00:14.394Z,2.44
2019-02-08T03:05:14.392Z,2.5
2019-02-08T03:10:14.367Z,2.44
2019-02-08T03:15:14.376Z,2.44
2019-02-08T03:20:14.464Z,2.38
2019-02-08T03:25:14.367Z,2.38
2019-02-08T03:30:14.369Z,2.31
2019-02-08T03:35:14.402Z,2.25
2019-02-08T03:40:14.376Z,2.13
2019-02-08T03:45:14.385Z,2
2019-02-08T03:50:14.392Z,2.06
2019-02-08T03:55:14.364Z,2.06
2019-02-08T04:00:14.372Z,2.13
2019-02-08T04:05:14.401Z,2.31
2019-02-08T04:10:14.365Z,2.31
2019-02-08T04:15:14.365Z,2.25
2019-02-08T04:20:14.408Z,2.25
2019-02-08T04:25:14.390Z,2.19
2019-02-08T04:30:14.406Z,2.25
2019-02-08T04:35:14.415Z,2.25
2019-02-08T04:40:14.424Z,2.19
2019-02-08T04:45:14.392Z,2.13
2019-02-08T04:50:14.421Z,2.13
2019-02-08T04:55:14.426Z,2.19
2019-02-08T05:00:14.387Z,2.25
2019-02-08T05:05:14.423Z,2.19
2019-02-08T05:10:14.430Z,2.13
2019-02-08T05:15:14.434Z,2.13
2019-02-08T05:20:14.441Z,2.13
2019-02-08T05:25:14.439Z,2.31
2019-02-08T05:30:14.445Z,2.38
2019-02-08T05:35:14.428Z,2.31
2019-02-08T05:40:14.429Z,2.25
2019-02-08T05:45:14.437Z,2.06
2019-02-08T05:50:14.438Z,1.94
2019-02-08T05:55:14.438Z,1.94
2019-02-08T06:00:14.435Z,1.88
2019-02-08T06:05:14.454Z,1.94
2019-02-08T06:10:14.450Z,1.94
2019-02-08T06:15:14.443Z,1.88
2019-02-08T06:20:14.447Z,1.94
2019-02-08T06:25:14.454Z,1.94
2019-02-08T06:30:14.455Z,2
2019-02-08T06:35:14.455Z,2.06
2019-02-08T06:40:14.483Z,2.06
2019-02-08T06:45:14.458Z,2
2019-02-08T06:50:14.472Z,2.06
2019-02-08T06:55:14.474Z,2.13
2019-02-08T07:00:14.465Z,2.19
2019-02-08T07:05:14.472Z,2.5
2019-02-08T07:10:14.477Z,2.56
2019-02-08T07:15:14.482Z,2.69
2019-02-08T07:20:14.512Z,2.69
2019-02-08T07:25:18.492Z,2.81
2019-02-08T07:30:14.489Z,2.88
2019-02-08T07:35:14.510Z,3
2019-02-08T07:40:14.500Z,3.13
2019-02-08T07:45:14.508Z,3.38
2019-02-08T07:50:14.501Z,3.5
2019-02-08T07:55:14.502Z,3.63
2019-02-08T08:00:14.490Z,3.75
2019-02-08T08:05:14.523Z,4
2019-02-08T08:10:14.506Z,4.38
2019-02-08T08:15:14.504Z,4.94
2019-02-08T08:20:14.537Z,5.44
2019-02-08T08:25:14.508Z,6.13
2019-02-08T08:30:14.510Z,6.13
2019-02-08T08:35:14.530Z,6.31
2019-02-08T08:40:14.517Z,6.44
2019-02-08T08:45:14.515Z,6.69
2019-02-08T08:50:14.535Z,6.88
2019-02-08T08:55:14.523Z,7.06
2019-02-08T09:00:14.538Z,7.25
2019-02-08T09:05:14.545Z,7.25
2019-02-08T09:10:14.531Z,7.19
2019-02-08T09:15:14.540Z,7.38
2019-02-08T09:20:14.549Z,7.56
2019-02-08T09:25:14.538Z,7.81
2019-02-08T09:30:14.541Z,7.81
2019-02-08T09:35:14.558Z,7.81
2019-02-08T09:40:14.549Z,7.81
2019-02-08T09:45:14.812Z,7.81
2019-02-08T09:50:14.556Z,7.81
2019-02-08T09:55:14.582Z,7.81
2019-02-08T10:00:14.568Z,7.81
2019-02-08T10:05:14.583Z,7.81
2019-02-08T10:10:14.787Z,7.81
2019-02-08T10:15:14.558Z,7.81
2019-02-08T10:20:14.658Z,9.13
2019-02-08T10:25:14.644Z,9.25
2019-02-08T10:30:14.561Z,9.38
2019-02-08T10:35:14.583Z,9.31
2019-02-08T10:40:14.582Z,9.13
2019-02-08T10:45:14.591Z,9.25
2019-02-08T10:50:14.594Z,9.31
2019-02-08T10:55:14.596Z,9.56
2019-02-08T11:00:14.593Z,9.75
2019-02-08T11:05:14.653Z,9.5
2019-02-08T11:10:14.594Z,9.44
2019-02-08T11:15:14.622Z,9.63
2019-02-08T11:20:14.607Z,9.94
2019-02-08T11:25:14.593Z,9.75
2019-02-08T11:30:14.592Z,9.75
2019-02-08T11:35:14.610Z,9.63
2019-02-08T11:40:14.596Z,9.75
2019-02-08T11:45:14.599Z,9.94
2019-02-08T11:50:14.620Z,9.81
2019-02-08T11:55:14.608Z,9.69
2019-02-08T12:00:14.681Z,9.56
2019-02-08T12:05:14.629Z,9.69
2019-02-08T12:10:14.628Z,9.69
2019-02-08T12:15:14.634Z,9.88
2019-02-08T12:20:14.652Z,9.88
2019-02-08T12:25:14.625Z,9.63
2019-02-08T12:30:14.633Z,9.75
2019-02-08T12:35:14.634Z,9.56
2019-02-08T12:40:14.634Z,9.63
2019-02-08T12:45:14.632Z,9.38
2019-02-08T12:50:14.653Z,9.25
2019-02-08T12:55:14.645Z,9
2019-02-08T13:00:14.728Z,8.81
2019-02-08T13:05:14.684Z,9.06
2019-02-08T13:10:14.644Z,9.06
2019-02-08T13:15:14.648Z,9.19
2019-02-08T13:20:14.668Z,9.25
2019-02-08T13:25:14.652Z,9.31
2019-02-08T13:30:14.680Z,9.38
2019-02-08T13:35:14.661Z,9.31
2019-02-08T13:40:14.678Z,9.19
2019-02-08T13:45:14.664Z,8.81
2019-02-08T13:50:14.671Z,8.75
2019-02-08T13:55:14.669Z,8.88
2019-02-08T14:00:14.691Z,8.88
2019-02-08T14:05:14.676Z,8.94
2019-02-08T14:10:14.678Z,8.94
2019-02-08T14:15:14.672Z,8.94
2019-02-08T14:20:14.681Z,8.94
2019-02-08T14:25:14.696Z,9
2019-02-08T14:30:14.666Z,9
2019-02-08T14:35:14.710Z,8.94
2019-02-08T14:40:14.751Z,8.88
2019-02-08T14:45:14.741Z,8.69
2019-02-08T14:50:14.697Z,8.5
2019-02-08T14:55:14.703Z,8.38
2019-02-08T15:00:14.693Z,8.25
2019-02-08T15:05:14.722Z,8.06
2019-02-08T15:10:14.718Z,8
2019-02-08T15:15:14.723Z,8
2019-02-08T15:20:14.710Z,7.94
2019-02-08T15:25:14.725Z,7.75
2019-02-08T15:30:14.712Z,7.63
2019-02-08T15:35:14.802Z,7.56
2019-02-08T15:40:14.731Z,7.5
2019-02-08T15:45:14.742Z,7.38
2019-02-08T15:50:14.721Z,7.31
2019-02-08T15:55:14.741Z,7.25
2019-02-08T16:00:14.730Z,7.19
2019-02-08T16:05:14.723Z,7
2019-02-08T16:10:14.743Z,6.94
2019-02-08T16:15:14.749Z,6.94
2019-02-08T16:20:14.742Z,6.88
2019-02-08T16:25:14.777Z,6.88
2019-02-08T16:30:14.745Z,6.81
2019-02-08T16:35:14.765Z,6.75
2019-02-08T16:40:14.761Z,6.69
2019-02-08T16:45:14.765Z,6.63
2019-02-08T16:50:14.749Z,6.56
2019-02-08T16:55:14.766Z,6.56
2019-02-08T17:00:14.765Z,6.56
2019-02-08T17:05:14.779Z,6.38
2019-02-08T17:10:14.791Z,6.31
2019-02-08T17:15:14.775Z,6.31
2019-02-08T17:20:14.761Z,6.38
2019-02-08T17:25:14.784Z,6.38
2019-02-08T17:30:14.759Z,6.25
2019-02-08T17:35:14.775Z,6.13
2019-02-08T17:40:14.808Z,6.06
2019-02-08T17:45:14.797Z,5.94
2019-02-08T17:50:14.782Z,5.88
2019-02-08T17:55:14.804Z,5.81
2019-02-08T18:00:14.786Z,5.75
2019-02-08T18:05:14.795Z,5.63
2019-02-08T18:10:14.808Z,5.56
2019-02-08T18:15:14.807Z,5.56
2019-02-08T18:20:14.801Z,5.56
2019-02-08T18:25:14.818Z,5.56
2019-02-08T18:30:14.799Z,5.56
2019-02-08T18:35:14.816Z,5.56
2019-02-08T18:40:14.815Z,5.5
2019-02-08T18:45:14.807Z,5.5
2019-02-08T18:50:14.821Z,5.5
2019-02-08T18:55:14.827Z,5.56
2019-02-08T19:00:14.840Z,5.56
2019-02-08T19:05:14.827Z,5.63
2019-02-08T19:10:14.828Z,5.63
2019-02-08T19:15:14.827Z,5.69
2019-02-08T19:20:14.826Z,5.63
2019-02-08T19:25:14.836Z,5.63
2019-02-08T19:30:14.841Z,5.63
2019-02-08T19:35:14.837Z,5.63
2019-02-08T19:40:14.853Z,5.56
2019-02-08T19:45:14.835Z,5.56
2019-02-08T19:50:14.837Z,5.5
2019-02-08T19:55:14.859Z,5.5
2019-02-08T20:00:14.846Z,5.5
2019-02-08T20:05:14.846Z,5.5
2019-02-08T20:10:14.862Z,5.5
2019-02-08T20:15:14.853Z,5.5
2019-02-08T20:20:14.852Z,5.5
2019-02-08T20:25:14.877Z,5.56
2019-02-08T20:30:14.858Z,5.63
2019-02-08T20:35:14.869Z,5.63
2019-02-08T20:40:14.912Z,5.63
2019-02-08T20:45:14.877Z,5.63
2019-02-08T20:50:14.923Z,5.63
2019-02-08T20:55:14.883Z,5.63
2019-02-08T21:00:14.875Z,5.56
2019-02-08T21:05:14.875Z,5.63
2019-02-08T21:10:14.898Z,5.63
2019-02-08T21:15:14.874Z,5.63
2019-02-08T21:20:14.882Z,5.63
2019-02-08T21:25:14.898Z,5.63
2019-02-08T21:30:14.893Z,5.63
2019-02-08T21:35:14.909Z,5.56
2019-02-08T21:40:15.002Z,5.5
2019-02-08T21:45:14.898Z,5.56
2019-02-08T21:50:14.898Z,5.56
2019-02-08T21:55:14.919Z,5.56
2019-02-08T22:00:14.920Z,5.56
2019-02-08T22:05:14.922Z,5.56
2019-02-08T22:10:14.953Z,5.56
2019-02-08T22:15:14.923Z,5.44
2019-02-08T22:20:14.918Z,5.38
2019-02-08T22:25:14.966Z,5.25
2019-02-08T22:30:14.943Z,5.25
2019-02-08T22:35:15.139Z,5.19
2019-02-08T22:40:14.943Z,5.19
2019-02-08T22:45:14.922Z,5.19
2019-02-08T22:50:14.911Z,5.25
2019-02-08T22:55:14.978Z,5.25
2019-02-08T23:00:14.947Z,5.25
2019-02-08T23:05:14.949Z,5.44
2019-02-08T23:10:14.956Z,5.56
2019-02-08T23:15:14.957Z,5.63
2019-02-08T23:20:14.961Z,5.63
2019-02-08T23:25:14.954Z,5.56
2019-02-08T23:30:14.958Z,5.56
2019-02-08T23:35:14.964Z,5.5
2019-02-08T23:40:14.981Z,5.5
2019-02-08T23:45:14.969Z,5.31
2019-02-08T23:50:14.986Z,5.25
2019-02-08T23:55:14.974Z,5.19
